Time;durP1;ratioP1;P1;durP2;ratioP2;P2;SDS_P1;SDS_P2;PMS_P1;PMS_P2;Temp;Humidity;BMP_temperature;BMP_pressure;BME280_temperature;BME280_humidity;BME280_pressure;Samples;Min_cycle;Max_cycle;Signal;HPM_P1;HPM_P2
2023/09/21 00:01:48;;;;;;;5.63;4.03;;;;;;;;;;5090730;28;20207;-70
2023/09/21 00:04:15;;;;;;;8.63;4.77;;;;;;;;;;5090815;28;20246;-70
2023/09/21 00:06:43;;;;;;;4.57;4.00;;;;;;;;;;5109348;28;20199;-70
2023/09/21 00:09:10;;;;;;;5.37;4.87;;;;;;;;;;5111377;28;20559;-70
2023/09/21 00:11:40;;;;;;;4.03;3.73;;;;;;;;;;5111021;28;20230;-70
2023/09/21 00:14:06;;;;;;;4.93;4.43;;;;;;;;;;5097705;28;20258;-70
2023/09/21 00:16:33;;;;;;;3.93;3.53;;;;;;;;;;5090107;28;20269;-70
2023/09/21 00:19:06;;;;;;;5.97;4.07;;;;;;;;;;5091078;28;20224;-70
2023/09/21 00:21:33;;;;;;;5.13;4.33;;;;;;;;;;5098122;28;20199;-70
2023/09/21 00:24:15;;;;;;;7.03;3.87;;;;;;;;;;5110931;28;20199;-70
2023/09/21 00:26:47;;;;;;;9.00;3.87;;;;;;;;;;5110590;28;20196;-70
2023/09/21 00:29:13;;;;;;;5.80;4.83;;;;;;;;;;5093474;28;20196;-70
2023/09/21 00:31:40;;;;;;;4.50;4.10;;;;;;;;;;5101273;28;20223;-70
2023/09/21 00:34:08;;;;;;;4.30;3.90;;;;;;;;;;5110629;28;20192;-70
2023/09/21 00:36:35;;;;;;;4.87;4.47;;;;;;;;;;5110422;28;20207;-70
2023/09/21 00:39:09;;;;;;;4.90;4.37;;;;;;;;;;5109531;28;20734;-71
2023/09/21 00:41:36;;;;;;;5.87;4.03;;;;;;;;;;5106991;28;20199;-70
2023/09/21 00:44:08;;;;;;;5.93;4.17;;;;;;;;;;5100819;28;20682;-70
2023/09/21 00:46:36;;;;;;;4.63;4.23;;;;;;;;;;5114599;28;20283;-70
2023/09/21 00:49:04;;;;;;;4.17;3.77;;;;;;;;;;5094764;28;20201;-70
2023/09/21 00:51:32;;;;;;;3.93;3.63;;;;;;;;;;5094211;28;20315;-70
2023/09/21 00:53:59;;;;;;;3.60;3.30;;;;;;;;;;5094372;28;20287;-70
2023/09/21 00:56:29;;;;;;;4.37;3.97;;;;;;;;;;5095101;28;20265;-70
2023/09/21 00:58:57;;;;;;;4.73;4.13;;;;;;;;;;5106370;28;20211;-70
2023/09/21 01:01:27;;;;;;;5.13;4.50;;;;;;;;;;5096115;28;20200;-70
2023/09/21 01:03:55;;;;;;;4.87;3.93;;;;;;;;;;5105266;28;20738;-70
2023/09/21 01:06:23;;;;;;;4.73;4.27;;;;;;;;;;5096604;28;20253;-69
2023/09/21 01:08:50;;;;;;;3.90;3.60;;;;;;;;;;5114570;28;20206;-70
2023/09/21 01:11:17;;;;;;;6.37;4.33;;;;;;;;;;5111411;28;20235;-70
2023/09/21 01:13:47;;;;;;;5.83;4.97;;;;;;;;;;5104219;28;20199;-70
2023/09/21 01:16:15;;;;;;;3.93;3.50;;;;;;;;;;5110549;28;20269;-70
2023/09/21 01:18:42;;;;;;;5.43;3.83;;;;;;;;;;5104334;28;20224;-70
2023/09/21 01:21:10;;;;;;;4.60;4.20;;;;;;;;;;5109403;28;20196;-70
2023/09/21 01:23:41;;;;;;;7.30;4.90;;;;;;;;;;5104989;28;20200;-70
2023/09/21 01:26:08;;;;;;;4.97;4.57;;;;;;;;;;5100193;28;20191;-70
2023/09/21 01:28:36;;;;;;;3.70;3.40;;;;;;;;;;5101965;28;20193;-70
2023/09/21 01:31:05;;;;;;;5.03;3.90;;;;;;;;;;5099056;28;20250;-72
2023/09/21 01:33:33;;;;;;;5.20;4.67;;;;;;;;;;5101232;28;20682;-70
2023/09/21 01:35:59;;;;;;;5.13;4.47;;;;;;;;;;5093637;28;20193;-69
2023/09/21 01:38:28;;;;;;;6.57;4.40;;;;;;;;;;5106549;28;20211;-70
2023/09/21 01:40:59;;;;;;;4.37;3.97;;;;;;;;;;5100280;28;20214;-70
2023/09/21 01:43:25;;;;;;;4.47;4.07;;;;;;;;;;5099863;28;20257;-70
2023/09/21 01:45:52;;;;;;;5.17;3.80;;;;;;;;;;5093153;28;20747;-70
2023/09/21 01:48:19;;;;;;;5.37;4.07;;;;;;;;;;5093131;28;20246;-70
2023/09/21 01:50:47;;;;;;;3.90;3.37;;;;;;;;;;5105569;28;20394;-70
2023/09/21 01:53:14;;;;;;;4.20;3.90;;;;;;;;;;5093049;28;20204;-70
2023/09/21 01:55:43;;;;;;;4.67;3.70;;;;;;;;;;5101089;28;20203;-70
2023/09/21 01:58:11;;;;;;;4.00;3.60;;;;;;;;;;5113357;28;20569;-70
2023/09/21 02:00:39;;;;;;;4.17;3.83;;;;;;;;;;5104164;28;20201;-70
2023/09/21 02:03:09;;;;;;;4.67;4.07;;;;;;;;;;5106741;28;20200;-70
2023/09/21 02:05:36;;;;;;;6.53;4.37;;;;;;;;;;5103321;28;20230;-71
2023/09/21 02:08:05;;;;;;;5.73;4.23;;;;;;;;;;5112865;28;20678;-69
2023/09/21 02:10:32;;;;;;;6.83;4.23;;;;;;;;;;5113153;28;20291;-70
2023/09/21 02:13:00;;;;;;;4.97;4.37;;;;;;;;;;5112451;28;20195;-70
2023/09/21 02:15:29;;;;;;;4.90;3.80;;;;;;;;;;5113466;28;20207;-70
2023/09/21 02:17:56;;;;;;;5.77;4.03;;;;;;;;;;5099196;28;20310;-70
2023/09/21 02:20:24;;;;;;;5.23;4.77;;;;;;;;;;5112734;28;20294;-70
2023/09/21 02:22:52;;;;;;;4.67;4.27;;;;;;;;;;5094150;28;20200;-70
2023/09/21 02:25:19;;;;;;;4.13;3.83;;;;;;;;;;5104245;28;20192;-70
2023/09/21 02:27:47;;;;;;;4.80;4.30;;;;;;;;;;5112301;28;20206;-70
2023/09/21 02:30:14;;;;;;;5.03;4.57;;;;;;;;;;5112896;28;20631;-70
2023/09/21 02:32:43;;;;;;;5.37;4.87;;;;;;;;;;5098377;28;20308;-70
2023/09/21 02:35:13;;;;;;;4.40;4.00;;;;;;;;;;5112640;28;20211;-70
2023/09/21 02:37:42;;;;;;;4.33;3.93;;;;;;;;;;5112773;28;20203;-70
2023/09/21 02:40:14;;;;;;;4.57;4.17;;;;;;;;;;5098717;28;20197;-71
2023/09/21 02:42:42;;;;;;;4.93;4.40;;;;;;;;;;5099948;28;20287;-71
2023/09/21 02:45:11;;;;;;;5.17;3.70;;;;;;;;;;5097888;28;20235;-70
2023/09/21 02:47:38;;;;;;;6.07;4.07;;;;;;;;;;5099955;28;20199;-70
2023/09/21 02:50:14;;;;;;;5.67;4.17;;;;;;;;;;5111112;28;20226;-70
2023/09/21 02:52:45;;;;;;;4.60;4.10;;;;;;;;;;5101447;28;20218;-70
2023/09/21 02:55:12;;;;;;;4.57;4.17;;;;;;;;;;5098701;28;20614;-70
2023/09/21 02:57:39;;;;;;;5.43;4.50;;;;;;;;;;5101752;28;20202;-70
2023/09/21 03:00:14;;;;;;;6.63;4.33;;;;;;;;;;5108184;28;20589;-70
2023/09/21 03:02:41;;;;;;;6.50;3.97;;;;;;;;;;5112184;28;20209;-70
2023/09/21 03:05:11;;;;;;;5.00;4.50;;;;;;;;;;5106901;28;20625;-71
2023/09/21 03:07:41;;;;;;;4.73;4.23;;;;;;;;;;5092142;28;20211;-71
2023/09/21 03:10:10;;;;;;;5.80;4.13;;;;;;;;;;5098004;28;20656;-70
2023/09/21 03:12:37;;;;;;;4.87;4.37;;;;;;;;;;5098364;28;20717;-70
2023/09/21 03:15:07;;;;;;;4.97;4.43;;;;;;;;;;5091794;28;20431;-70
2023/09/21 03:17:36;;;;;;;8.17;4.67;;;;;;;;;;5091522;28;20592;-70
2023/09/21 03:20:18;;;;;;;7.43;4.73;;;;;;;;;;5091830;28;20261;-70
2023/09/21 03:22:47;;;;;;;4.50;4.10;;;;;;;;;;5104716;28;20206;-70
2023/09/21 03:25:16;;;;;;;4.90;4.00;;;;;;;;;;5103079;28;20207;-70
2023/09/21 03:27:45;;;;;;;6.77;4.77;;;;;;;;;;5097656;28;20592;-70
2023/09/21 03:30:13;;;;;;;4.90;4.50;;;;;;;;;;5111168;28;20209;-70
2023/09/21 03:32:40;;;;;;;5.93;4.40;;;;;;;;;;5092141;28;20230;-70
2023/09/21 03:35:10;;;;;;;5.90;3.97;;;;;;;;;;5091437;28;20207;-70
2023/09/21 03:37:40;;;;;;;6.60;4.10;;;;;;;;;;5105954;28;20215;-70
2023/09/21 03:40:10;;;;;;;5.07;4.57;;;;;;;;;;5111384;28;20210;-70
2023/09/21 03:42:37;;;;;;;5.20;4.27;;;;;;;;;;5111402;28;20640;-70
2023/09/21 03:45:04;;;;;;;5.03;4.27;;;;;;;;;;5110912;28;20213;-70
2023/09/21 03:47:31;;;;;;;7.77;4.63;;;;;;;;;;5091114;28;20203;-70
2023/09/21 03:50:00;;;;;;;5.20;4.30;;;;;;;;;;5103160;28;20436;-70
2023/09/21 03:52:27;;;;;;;6.07;5.47;;;;;;;;;;5092934;28;20254;-70
2023/09/21 03:54:54;;;;;;;4.93;4.43;;;;;;;;;;5090841;28;20255;-69
2023/09/21 03:57:23;;;;;;;4.77;4.37;;;;;;;;;;5091190;28;20645;-69
2023/09/21 03:59:49;;;;;;;5.13;4.50;;;;;;;;;;5092515;28;20211;-77
2023/09/21 04:02:19;;;;;;;6.47;4.83;;;;;;;;;;5091751;28;20207;-77
2023/09/21 04:04:46;;;;;;;7.17;4.60;;;;;;;;;;5097029;28;20261;-77
2023/09/21 04:07:12;;;;;;;6.17;4.63;;;;;;;;;;5104316;28;20290;-77
2023/09/21 04:09:39;;;;;;;5.87;5.27;;;;;;;;;;5110779;28;20260;-76
2023/09/21 04:12:06;;;;;;;10.13;4.67;;;;;;;;;;5095390;28;20225;-76
2023/09/21 04:14:35;;;;;;;5.33;4.60;;;;;;;;;;5100667;28;20716;-76
2023/09/21 04:17:02;;;;;;;4.87;4.47;;;;;;;;;;5097057;28;20681;-76
2023/09/21 04:19:29;;;;;;;6.63;4.63;;;;;;;;;;5099572;28;20317;-76
2023/09/21 04:21:56;;;;;;;6.43;4.73;;;;;;;;;;5090566;28;20572;-76
2023/09/21 04:24:23;;;;;;;5.93;5.40;;;;;;;;;;5090479;28;20198;-76
2023/09/21 04:26:50;;;;;;;7.30;4.57;;;;;;;;;;5101464;28;20225;-76
2023/09/21 04:29:17;;;;;;;12.03;5.03;;;;;;;;;;5096544;28;20690;-76
2023/09/21 04:31:45;;;;;;;6.77;4.70;;;;;;;;;;5099518;28;20223;-76
2023/09/21 04:34:12;;;;;;;5.37;4.83;;;;;;;;;;5103775;28;20199;-76
2023/09/21 04:36:38;;;;;;;5.03;4.50;;;;;;;;;;5090410;28;20211;-77
2023/09/21 04:39:05;;;;;;;6.40;5.33;;;;;;;;;;5095017;28;20203;-76
2023/09/21 04:41:33;;;;;;;8.13;5.07;;;;;;;;;;5109066;28;20199;-76
2023/09/21 04:44:00;;;;;;;6.10;5.17;;;;;;;;;;5095712;28;20205;-76
2023/09/21 04:46:26;;;;;;;5.67;5.07;;;;;;;;;;5096129;28;20208;-76
2023/09/21 04:48:55;;;;;;;9.70;4.97;;;;;;;;;;5102821;28;20546;-76
2023/09/21 04:51:21;;;;;;;4.80;4.30;;;;;;;;;;5102155;28;20709;-76
2023/09/21 04:53:48;;;;;;;6.07;4.40;;;;;;;;;;5095881;28;20222;-76
2023/09/21 04:56:15;;;;;;;5.60;4.87;;;;;;;;;;5109915;28;20650;-76
2023/09/21 04:58:42;;;;;;;7.13;4.80;;;;;;;;;;5110319;28;20574;-76
2023/09/21 05:01:10;;;;;;;4.80;4.30;;;;;;;;;;5096790;28;20207;-76
2023/09/21 05:03:37;;;;;;;5.97;4.27;;;;;;;;;;5090162;28;20242;-76
2023/09/21 05:06:06;;;;;;;5.73;4.50;;;;;;;;;;5102755;28;20618;-76
2023/09/21 05:08:36;;;;;;;6.73;4.93;;;;;;;;;;5090066;28;20579;-76
2023/09/21 05:11:03;;;;;;;10.10;6.70;;;;;;;;;;5103599;28;20217;-75
2023/09/21 05:13:31;;;;;;;7.47;5.33;;;;;;;;;;5098239;28;20228;-76
2023/09/21 05:15:57;;;;;;;6.43;4.83;;;;;;;;;;5110076;28;20234;-76
2023/09/21 05:18:24;;;;;;;4.80;4.10;;;;;;;;;;5110377;28;20230;-76
2023/09/21 05:20:51;;;;;;;11.57;5.07;;;;;;;;;;5095019;28;20202;-76
2023/09/21 05:23:20;;;;;;;5.80;4.63;;;;;;;;;;5090362;28;20685;-76
2023/09/21 05:25:46;;;;;;;8.67;5.03;;;;;;;;;;5093553;28;20590;-76
2023/09/21 05:28:16;;;;;;;10.53;5.03;;;;;;;;;;5093873;28;20204;-76
2023/09/21 05:30:43;;;;;;;6.80;4.50;;;;;;;;;;5096573;28;20768;-76
2023/09/21 05:33:10;;;;;;;9.63;5.10;;;;;;;;;;5103848;28;20677;-76
2023/09/21 05:35:37;;;;;;;9.03;4.40;;;;;;;;;;5094014;28;20222;-76
2023/09/21 05:38:05;;;;;;;5.90;4.73;;;;;;;;;;5103327;28;20290;-76
2023/09/21 05:40:34;;;;;;;8.57;4.37;;;;;;;;;;5099782;28;20734;-76
2023/09/21 05:43:01;;;;;;;6.17;5.03;;;;;;;;;;5102821;28;20636;-76
2023/09/21 05:45:28;;;;;;;9.43;5.63;;;;;;;;;;5093048;28;20204;-76
2023/09/21 05:47:55;;;;;;;9.30;5.60;;;;;;;;;;5093541;28;20257;-76
2023/09/21 05:50:22;;;;;;;5.73;4.83;;;;;;;;;;5097787;28;20591;-76
2023/09/21 05:52:49;;;;;;;6.30;4.90;;;;;;;;;;5101639;28;20220;-76
2023/09/21 05:55:16;;;;;;;9.73;4.53;;;;;;;;;;5093554;28;20200;-76
2023/09/21 05:57:47;;;;;;;4.97;4.57;;;;;;;;;;5093082;28;20626;-77
2023/09/21 06:00:17;;;;;;;5.37;4.93;;;;;;;;;;5106321;28;20657;-76
2023/09/21 06:02:44;;;;;;;7.40;5.13;;;;;;;;;;5105977;28;20712;-76
2023/09/21 06:05:11;;;;;;;9.23;4.20;;;;;;;;;;5093520;28;20204;-76
2023/09/21 06:07:37;;;;;;;28.60;6.73;;;;;;;;;;5092849;28;20751;-76
2023/09/21 06:10:06;;;;;;;12.03;5.27;;;;;;;;;;5093250;28;20204;-76
2023/09/21 06:12:33;;;;;;;11.83;5.53;;;;;;;;;;5106088;28;20227;-76
2023/09/21 06:15:05;;;;;;;11.10;5.73;;;;;;;;;;5112890;28;20693;-76
2023/09/21 06:17:32;;;;;;;11.60;5.87;;;;;;;;;;5112682;28;20643;-76
2023/09/21 06:19:59;;;;;;;14.53;5.73;;;;;;;;;;5104957;28;20204;-76
2023/09/21 06:22:26;;;;;;;8.17;5.50;;;;;;;;;;5092565;28;20207;-77
2023/09/21 06:24:53;;;;;;;9.50;5.13;;;;;;;;;;5092454;28;20216;-76
2023/09/21 06:27:20;;;;;;;5.37;4.87;;;;;;;;;;5105919;28;20252;-77
2023/09/21 06:29:47;;;;;;;4.43;4.03;;;;;;;;;;5092546;28;20204;-77
2023/09/21 06:32:15;;;;;;;13.27;5.47;;;;;;;;;;5107629;28;20195;-77
2023/09/21 06:34:42;;;;;;;15.70;5.63;;;;;;;;;;5104017;28;20582;-76
2023/09/21 06:37:09;;;;;;;17.33;5.97;;;;;;;;;;5095375;28;20211;-77
2023/09/21 06:39:36;;;;;;;9.20;4.87;;;;;;;;;;5102892;28;20727;-77
2023/09/21 06:42:02;;;;;;;10.90;5.73;;;;;;;;;;5106113;28;20266;-77
2023/09/21 06:44:29;;;;;;;11.67;5.60;;;;;;;;;;5102309;28;20206;-77
2023/09/21 06:46:57;;;;;;;6.20;4.20;;;;;;;;;;5112108;28;20261;-77
2023/09/21 06:49:26;;;;;;;9.37;5.30;;;;;;;;;;5102243;28;20674;-76
2023/09/21 06:51:54;;;;;;;11.07;6.93;;;;;;;;;;5095924;28;20210;-77
2023/09/21 06:54:23;;;;;;;7.13;5.03;;;;;;;;;;5101968;28;20228;-77
2023/09/21 06:56:49;;;;;;;9.03;5.77;;;;;;;;;;5091619;28;20200;-76
2023/09/21 06:59:16;;;;;;;8.13;5.50;;;;;;;;;;5092090;28;20200;-77
2023/09/21 07:01:43;;;;;;;8.73;4.70;;;;;;;;;;5105642;28;20204;-76
2023/09/21 07:04:10;;;;;;;7.13;4.40;;;;;;;;;;5092338;28;20276;-76
2023/09/21 07:06:39;;;;;;;4.73;4.23;;;;;;;;;;5096765;28;20204;-77
2023/09/21 07:09:06;;;;;;;4.70;4.10;;;;;;;;;;5111895;28;20246;-76
2023/09/21 07:11:33;;;;;;;5.70;4.30;;;;;;;;;;5112158;28;20208;-77
2023/09/21 07:14:00;;;;;;;7.77;4.10;;;;;;;;;;5099305;28;20232;-77
2023/09/21 07:16:27;;;;;;;7.20;3.47;;;;;;;;;;5111062;28;20195;-77
2023/09/21 07:18:53;;;;;;;4.77;4.23;;;;;;;;;;5098866;28;20228;-77
2023/09/21 07:21:20;;;;;;;5.10;4.07;;;;;;;;;;5096545;28;20196;-77
2023/09/21 07:23:49;;;;;;;5.00;4.17;;;;;;;;;;5111611;28;20204;-77
2023/09/21 07:26:16;;;;;;;6.43;3.73;;;;;;;;;;5092623;28;20257;-77
2023/09/21 07:28:44;;;;;;;5.27;3.80;;;;;;;;;;5104843;28;20196;-77
2023/09/21 07:31:11;;;;;;;5.10;4.50;;;;;;;;;;5091497;28;20207;-77
2023/09/21 07:33:38;;;;;;;4.17;3.73;;;;;;;;;;5104363;28;20271;-77
2023/09/21 07:36:06;;;;;;;4.40;4.10;;;;;;;;;;5097851;28;20218;-77
2023/09/21 07:38:33;;;;;;;5.10;4.60;;;;;;;;;;5097500;28;20261;-75
2023/09/21 07:41:02;;;;;;;5.53;4.53;;;;;;;;;;5098064;28;20191;-75
2023/09/21 07:43:29;;;;;;;4.93;3.63;;;;;;;;;;5110951;28;20208;-75
2023/09/21 07:45:57;;;;;;;11.07;4.40;;;;;;;;;;5091198;28;20208;-75
2023/09/21 07:48:25;;;;;;;6.00;4.07;;;;;;;;;;5090500;28;20204;-75
2023/09/21 07:50:55;;;;;;;4.63;4.03;;;;;;;;;;5091095;28;20208;-75
2023/09/21 07:53:22;;;;;;;4.53;4.07;;;;;;;;;;5090849;28;20603;-75
2023/09/21 07:55:58;;;;;;;5.57;4.27;;;;;;;;;;5090739;28;20209;-75
2023/09/21 07:58:27;;;;;;;6.30;4.50;;;;;;;;;;5094887;28;20673;-75
2023/09/21 08:00:55;;;;;;;4.77;4.30;;;;;;;;;;5099743;28;20200;-75
2023/09/21 08:03:25;;;;;;;8.93;4.67;;;;;;;;;;5104167;28;20197;-75
2023/09/21 08:05:52;;;;;;;4.87;4.10;;;;;;;;;;5103463;28;20290;-75
2023/09/21 08:08:19;;;;;;;4.57;3.77;;;;;;;;;;5092050;28;20196;-74
2023/09/21 08:10:45;;;;;;;6.70;3.93;;;;;;;;;;5090737;28;20204;-75
2023/09/21 08:13:12;;;;;;;5.20;4.80;;;;;;;;;;5095623;28;20215;-76
2023/09/21 08:15:40;;;;;;;7.03;4.00;;;;;;;;;;5094034;28;20284;-75
2023/09/21 08:18:10;;;;;;;4.23;3.87;;;;;;;;;;5101969;28;20603;-77
2023/09/21 08:20:39;;;;;;;4.83;4.13;;;;;;;;;;5108146;28;20752;-75
2023/09/21 08:23:06;;;;;;;5.10;4.13;;;;;;;;;;5109129;28;20226;-75
2023/09/21 08:25:33;;;;;;;6.27;4.40;;;;;;;;;;5107599;28;20613;-76
2023/09/21 08:28:00;;;;;;;6.43;3.80;;;;;;;;;;5097120;28;20203;-75
2023/09/21 08:30:27;;;;;;;7.80;3.87;;;;;;;;;;5097157;28;20292;-75
2023/09/21 08:32:55;;;;;;;4.23;3.93;;;;;;;;;;5090379;28;20305;-76
2023/09/21 08:35:25;;;;;;;3.93;3.60;;;;;;;;;;5103873;28;20252;-76
2023/09/21 08:37:52;;;;;;;5.73;3.87;;;;;;;;;;5090180;28;20208;-75
2023/09/21 08:40:19;;;;;;;4.33;3.87;;;;;;;;;;5090857;28;20612;-76
2023/09/21 08:42:47;;;;;;;4.00;3.60;;;;;;;;;;5090475;28;20214;-75
2023/09/21 08:45:15;;;;;;;7.23;3.90;;;;;;;;;;5092011;28;20257;-76
2023/09/21 08:47:42;;;;;;;4.43;4.03;;;;;;;;;;5107749;28;20265;-77
2023/09/21 08:50:10;;;;;;;4.00;3.67;;;;;;;;;;5094569;28;20215;-76
2023/09/21 08:52:39;;;;;;;4.60;4.17;;;;;;;;;;5103788;28;20200;-75
2023/09/21 08:55:10;;;;;;;4.50;4.10;;;;;;;;;;5100559;28;20234;-75
2023/09/21 08:57:37;;;;;;;4.47;3.60;;;;;;;;;;5110209;28;20286;-75
2023/09/21 09:00:06;;;;;;;4.60;4.03;;;;;;;;;;5113683;28;20256;-76
2023/09/21 09:02:35;;;;;;;5.20;3.97;;;;;;;;;;5109400;28;20231;-76
2023/09/21 09:05:04;;;;;;;4.50;4.10;;;;;;;;;;5106467;28;20234;-75
2023/09/21 09:07:37;;;;;;;5.07;4.00;;;;;;;;;;5094521;28;20231;-75
2023/09/21 09:10:06;;;;;;;3.83;3.53;;;;;;;;;;5094094;28;20201;-76
2023/09/21 09:12:32;;;;;;;3.93;3.53;;;;;;;;;;5093756;28;20763;-75
2023/09/21 09:15:02;;;;;;;4.20;3.90;;;;;;;;;;5107512;28;20310;-75
2023/09/21 09:17:30;;;;;;;4.20;3.80;;;;;;;;;;5106102;28;20196;-75
2023/09/21 09:19:58;;;;;;;5.43;3.67;;;;;;;;;;5094174;28;20315;-75
2023/09/21 09:22:25;;;;;;;6.33;3.90;;;;;;;;;;5107515;28;20274;-75
2023/09/21 09:24:56;;;;;;;4.37;3.77;;;;;;;;;;5099588;28;20209;-75
2023/09/21 09:27:24;;;;;;;5.32;3.90;;;;;;;;;;5101315;28;20281;-76
2023/09/21 09:29:52;;;;;;;7.40;5.07;;;;;;;;;;5100157;28;20208;-76
2023/09/21 09:32:19;;;;;;;4.53;4.22;;;;;;;;;;5113761;28;20686;-75
2023/09/21 09:34:47;;;;;;;7.18;4.43;;;;;;;;;;5097666;28;20228;-75
2023/09/21 09:37:15;;;;;;;5.25;4.75;;;;;;;;;;5093226;28;20674;-75
2023/09/21 09:39:43;;;;;;;7.00;4.28;;;;;;;;;;5093336;28;20204;-75
2023/09/21 09:42:11;;;;;;;8.38;4.40;;;;;;;;;;5097775;28;20567;-75
2023/09/21 09:44:43;;;;;;;8.18;4.90;;;;;;;;;;5098213;28;20232;-75
2023/09/21 09:47:11;;;;;;;5.20;4.07;;;;;;;;;;5113295;28;20207;-75
2023/09/21 09:49:40;;;;;;;6.40;4.27;;;;;;;;;;5113175;28;20298;-75
2023/09/21 09:52:10;;;;;;;6.87;5.50;;;;;;;;;;5112997;28;20738;-75
2023/09/21 09:54:39;;;;;;;5.30;4.60;;;;;;;;;;5113409;28;20943;-75
2023/09/21 09:57:11;;;;;;;7.13;4.60;;;;;;;;;;5102558;28;20200;-75
2023/09/21 09:59:40;;;;;;;4.73;4.23;;;;;;;;;;5106856;28;20204;-75
2023/09/21 10:02:08;;;;;;;5.13;4.20;;;;;;;;;;5105466;28;20204;-75
2023/09/21 10:04:36;;;;;;;5.60;4.37;;;;;;;;;;5099700;28;20207;-75
2023/09/21 10:07:04;;;;;;;5.20;4.40;;;;;;;;;;5100543;28;20291;-75
2023/09/21 10:09:31;;;;;;;4.47;4.17;;;;;;;;;;5105985;28;20242;-75
2023/09/21 10:11:58;;;;;;;6.03;4.27;;;;;;;;;;5092610;28;20204;-75
2023/09/21 10:14:25;;;;;;;6.72;4.28;;;;;;;;;;5092711;28;20231;-75
2023/09/21 10:16:56;;;;;;;4.40;3.70;;;;;;;;;;5095703;28;20196;-76
2023/09/21 10:19:25;;;;;;;5.30;3.87;;;;;;;;;;5103348;28;20223;-76
2023/09/21 10:21:54;;;;;;;7.93;4.20;;;;;;;;;;5106023;28;20286;-75
2023/09/21 10:24:22;;;;;;;6.43;3.93;;;;;;;;;;5095451;28;20682;-76
2023/09/21 10:26:50;;;;;;;4.80;4.00;;;;;;;;;;5092899;28;20202;-75
2023/09/21 10:29:20;;;;;;;4.20;3.80;;;;;;;;;;5091846;28;20283;-75
2023/09/21 10:31:55;;;;;;;6.90;4.37;;;;;;;;;;5092904;28;20215;-75
2023/09/21 10:34:23;;;;;;;5.73;4.07;;;;;;;;;;5106886;28;20314;-75
2023/09/21 10:36:52;;;;;;;4.60;4.07;;;;;;;;;;5099140;28;20616;-75
2023/09/21 10:39:28;;;;;;;8.50;3.93;;;;;;;;;;5092602;28;20208;-75
2023/09/21 10:41:56;;;;;;;4.83;3.53;;;;;;;;;;5091951;28;20204;-75
2023/09/21 10:44:59;;;;;;;4.32;3.85;;;;;;;;;;5092018;28;20203;-75
2023/09/21 10:47:31;;;;;;;5.83;4.20;;;;;;;;;;5092210;28;20204;-76
2023/09/21 10:49:59;;;;;;;5.17;4.13;;;;;;;;;;5098605;28;20200;-75
2023/09/21 10:52:28;;;;;;;4.40;4.10;;;;;;;;;;5100539;28;20601;-75
2023/09/21 10:54:56;;;;;;;7.23;4.20;;;;;;;;;;5092697;28;20312;-75
2023/09/21 10:57:24;;;;;;;7.87;3.67;;;;;;;;;;5104998;28;20272;-76
2023/09/21 10:59:52;;;;;;;4.27;3.20;;;;;;;;;;5098509;28;20199;-76
2023/09/21 11:02:19;;;;;;;4.77;4.27;;;;;;;;;;5111870;28;20207;-76
2023/09/21 11:04:48;;;;;;;5.37;4.03;;;;;;;;;;5111831;28;20199;-75
2023/09/21 11:07:16;;;;;;;4.43;3.70;;;;;;;;;;5111366;28;20257;-76
2023/09/21 11:09:43;;;;;;;4.10;3.57;;;;;;;;;;5099842;28;20203;-75
2023/09/21 11:12:13;;;;;;;4.27;3.70;;;;;;;;;;5103685;28;20249;-75
2023/09/21 11:14:41;;;;;;;5.03;4.00;;;;;;;;;;5104793;28;20227;-76
2023/09/21 11:17:11;;;;;;;4.60;4.20;;;;;;;;;;5091350;28;20204;-75
2023/09/21 11:19:38;;;;;;;4.43;3.53;;;;;;;;;;5091820;28;20235;-75
2023/09/21 11:22:06;;;;;;;5.63;3.63;;;;;;;;;;5089136;28;20258;-75
2023/09/21 11:24:33;;;;;;;4.20;3.90;;;;;;;;;;5104257;28;20249;-75
2023/09/21 11:27:03;;;;;;;4.07;3.70;;;;;;;;;;5104014;28;20290;-76
2023/09/21 11:29:30;;;;;;;7.17;4.23;;;;;;;;;;5111859;28;20256;-76
2023/09/21 11:31:57;;;;;;;8.30;4.00;;;;;;;;;;5098394;28;20200;-75
2023/09/21 11:34:23;;;;;;;6.60;4.20;;;;;;;;;;5091450;28;20216;-77
2023/09/21 11:36:54;;;;;;;7.20;4.93;;;;;;;;;;5104787;28;20265;-75
2023/09/21 11:39:29;;;;;;;5.35;3.75;;;;;;;;;;5099043;28;20641;-76
2023/09/21 11:41:56;;;;;;;8.35;3.83;;;;;;;;;;5110907;28;20210;-76
2023/09/21 11:44:28;;;;;;;7.47;4.13;;;;;;;;;;5102626;28;20774;-77
2023/09/21 11:46:57;;;;;;;4.78;4.38;;;;;;;;;;5104041;28;20205;-76
2023/09/21 11:49:35;;;;;;;4.90;4.13;;;;;;;;;;5101692;28;20218;-76
2023/09/21 11:52:03;;;;;;;5.25;4.30;;;;;;;;;;5097515;28;20207;-77
2023/09/21 11:54:34;;;;;;;5.65;4.00;;;;;;;;;;5111106;28;20223;-77
2023/09/21 11:57:04;;;;;;;10.75;4.65;;;;;;;;;;5105146;28;20200;-77
2023/09/21 11:59:36;;;;;;;4.40;4.05;;;;;;;;;;5104322;28;20200;-77
2023/09/21 12:02:09;;;;;;;6.85;4.53;;;;;;;;;;5091305;28;20291;-77
2023/09/21 12:04:37;;;;;;;5.80;3.60;;;;;;;;;;5092283;28;20208;-77
2023/09/21 12:07:05;;;;;;;5.20;3.97;;;;;;;;;;5102421;28;20653;-77
2023/09/21 12:09:37;;;;;;;5.97;3.67;;;;;;;;;;5104559;28;20286;-77
2023/09/21 12:12:06;;;;;;;9.52;3.92;;;;;;;;;;5090111;28;20295;-77
2023/09/21 12:14:33;;;;;;;8.63;4.28;;;;;;;;;;5089945;28;20697;-77
2023/09/21 12:17:04;;;;;;;8.27;3.80;;;;;;;;;;5104977;28;20207;-77
2023/09/21 12:19:32;;;;;;;4.32;3.80;;;;;;;;;;5109845;28;20298;-77
2023/09/21 12:21:59;;;;;;;4.07;3.25;;;;;;;;;;5110186;28;20666;-77
2023/09/21 12:24:26;;;;;;;4.80;3.83;;;;;;;;;;5109994;28;20273;-76
2023/09/21 12:26:55;;;;;;;9.45;4.03;;;;;;;;;;5098506;28;20200;-76
2023/09/21 12:29:24;;;;;;;4.60;3.80;;;;;;;;;;5104530;28;20196;-77
2023/09/21 12:31:52;;;;;;;4.65;3.83;;;;;;;;;;5090817;28;20262;-77
2023/09/21 12:34:19;;;;;;;4.55;3.78;;;;;;;;;;5094219;28;20234;-77
2023/09/21 12:36:48;;;;;;;8.35;4.43;;;;;;;;;;5094338;28;20200;-77
2023/09/21 12:39:15;;;;;;;4.85;4.35;;;;;;;;;;5114699;28;20256;-77
2023/09/21 12:41:43;;;;;;;4.43;3.80;;;;;;;;;;5101830;28;20200;-76
2023/09/21 12:44:11;;;;;;;6.93;4.32;;;;;;;;;;5101546;28;20204;-76
2023/09/21 12:46:38;;;;;;;7.00;4.22;;;;;;;;;;5114137;28;20257;-77
2023/09/21 12:49:05;;;;;;;4.68;3.67;;;;;;;;;;5101849;28;20242;-77
2023/09/21 12:51:32;;;;;;;12.88;4.15;;;;;;;;;;5094359;28;20667;-77
2023/09/21 12:53:59;;;;;;;4.60;4.20;;;;;;;;;;5094194;28;20211;-77
2023/09/21 12:56:27;;;;;;;3.90;3.60;;;;;;;;;;5094463;28;20242;-77
2023/09/21 12:58:55;;;;;;;5.32;3.72;;;;;;;;;;5094445;28;20205;-77
2023/09/21 13:01:24;;;;;;;7.47;4.00;;;;;;;;;;5093905;28;20686;-76
2023/09/21 13:03:51;;;;;;;5.72;3.78;;;;;;;;;;5094389;28;20208;-76
2023/09/21 13:06:19;;;;;;;4.30;3.90;;;;;;;;;;5103623;28;20215;-76
2023/09/21 13:08:46;;;;;;;4.75;4.32;;;;;;;;;;5101090;28;20222;-77
2023/09/21 13:11:13;;;;;;;5.72;3.67;;;;;;;;;;5108226;28;20589;-77
2023/09/21 13:13:40;;;;;;;6.45;3.90;;;;;;;;;;5094083;28;20686;-76
2023/09/21 13:16:08;;;;;;;4.15;3.58;;;;;;;;;;5093944;28;20606;-76
2023/09/21 13:18:38;;;;;;;4.75;3.70;;;;;;;;;;5093813;28;20232;-76
2023/09/21 13:21:04;;;;;;;6.25;4.35;;;;;;;;;;5094460;28;20246;-76
2023/09/21 13:23:31;;;;;;;3.50;3.20;;;;;;;;;;5093999;28;20260;-76
2023/09/21 13:25:58;;;;;;;4.88;3.92;;;;;;;;;;5097311;28;20192;-76
2023/09/21 13:28:24;;;;;;;5.10;3.63;;;;;;;;;;5103512;28;20564;-76
2023/09/21 13:30:52;;;;;;;3.80;3.13;;;;;;;;;;5093677;28;20196;-76
2023/09/21 13:33:19;;;;;;;4.18;3.47;;;;;;;;;;5104350;28;20674;-76
2023/09/21 13:35:47;;;;;;;4.20;3.47;;;;;;;;;;5099878;28;20268;-76
2023/09/21 13:38:14;;;;;;;8.98;3.55;;;;;;;;;;5102265;28;20262;-76
2023/09/21 13:40:41;;;;;;;4.28;3.88;;;;;;;;;;5106891;28;20259;-76
2023/09/21 13:43:07;;;;;;;5.60;3.70;;;;;;;;;;5104244;28;20196;-76
2023/09/21 13:45:35;;;;;;;4.55;3.47;;;;;;;;;;5092455;28;20211;-77
2023/09/21 13:48:03;;;;;;;4.00;3.55;;;;;;;;;;5105758;28;20200;-76
2023/09/21 13:50:30;;;;;;;5.30;3.67;;;;;;;;;;5104566;28;20276;-76
2023/09/21 13:52:58;;;;;;;4.10;3.05;;;;;;;;;;5098292;28;20673;-76
2023/09/21 13:55:26;;;;;;;4.20;3.00;;;;;;;;;;5108737;28;20646;-76
2023/09/21 13:57:53;;;;;;;5.88;3.83;;;;;;;;;;5097320;28;20764;-76
2023/09/21 14:00:21;;;;;;;5.10;3.90;;;;;;;;;;5092576;28;20265;-76
2023/09/21 14:02:48;;;;;;;7.15;4.07;;;;;;;;;;5093146;28;20196;-73
2023/09/21 14:05:18;;;;;;;7.30;4.50;;;;;;;;;;5107476;28;20234;-73
2023/09/21 14:07:45;;;;;;;4.30;3.90;;;;;;;;;;5106653;28;20200;-73
2023/09/21 14:10:14;;;;;;;3.92;3.47;;;;;;;;;;5107688;28;20630;-73
2023/09/21 14:12:41;;;;;;;5.25;4.57;;;;;;;;;;5102670;28;20208;-73
2023/09/21 14:15:09;;;;;;;11.20;6.18;;;;;;;;;;5096390;28;20219;-73
2023/09/21 14:17:36;;;;;;;13.82;5.90;;;;;;;;;;5102003;28;20208;-73
2023/09/21 14:20:03;;;;;;;10.23;7.50;;;;;;;;;;5092460;28;20200;-73
2023/09/21 14:22:30;;;;;;;8.60;5.22;;;;;;;;;;5092465;28;20227;-73
2023/09/21 14:24:56;;;;;;;5.75;4.72;;;;;;;;;;5092975;28;20204;-73
2023/09/21 14:27:25;;;;;;;6.57;5.88;;;;;;;;;;5092097;28;20557;-73
2023/09/21 14:29:52;;;;;;;8.95;3.95;;;;;;;;;;5102031;28;20583;-73
2023/09/21 14:32:19;;;;;;;5.15;3.70;;;;;;;;;;5098382;28;20277;-73
2023/09/21 14:34:46;;;;;;;8.65;4.20;;;;;;;;;;5105157;28;20199;-73
2023/09/21 14:37:12;;;;;;;7.38;3.63;;;;;;;;;;5112477;28;20199;-73
2023/09/21 14:39:39;;;;;;;7.88;3.95;;;;;;;;;;5103292;28;20200;-73
2023/09/21 14:42:06;;;;;;;4.88;3.97;;;;;;;;;;5092618;28;20292;-73
2023/09/21 14:44:34;;;;;;;4.55;4.15;;;;;;;;;;5102372;28;20197;-73
2023/09/21 14:47:02;;;;;;;6.35;3.83;;;;;;;;;;5111768;28;20211;-73
2023/09/21 14:49:29;;;;;;;6.18;4.50;;;;;;;;;;5099261;28;20199;-73